Time;durP1;ratioP1;P1;durP2;ratioP2;P2;SDS_P1;SDS_P2;PMS_P1;PMS_P2;Temp;Humidity;BMP_temperature;BMP_pressure;BME280_temperature;BME280_humidity;BME280_pressure;Samples;Min_cycle;Max_cycle;Signal;HPM_P1;HPM_P2
2022/03/30 00:31:13;;;;;;;5.63;1.90;;;7.20;99.90;;;;;;4985847;28;20216;-77
2022/03/30 00:33:38;;;;;;;9.97;2.70;;;7.20;99.90;;;;;;4996132;28;20251;-78
2022/03/30 00:36:05;;;;;;;7.37;2.37;;;7.20;99.90;;;;;;5017778;28;20181;-77
2022/03/30 00:38:30;;;;;;;8.50;2.50;;;7.20;99.90;;;;;;4995889;28;20757;-77
2022/03/30 00:40:56;;;;;;;11.50;2.73;;;7.20;99.90;;;;;;5018154;28;20201;-77
2022/03/30 00:43:21;;;;;;;8.40;2.50;;;7.10;99.90;;;;;;5019806;28;20213;-77
2022/03/30 00:45:47;;;;;;;12.43;3.10;;;7.10;99.90;;;;;;4998650;28;20185;-77
2022/03/30 00:48:13;;;;;;;8.47;2.60;;;7.10;99.90;;;;;;4990123;28;20674;-77
2022/03/30 00:50:38;;;;;;;7.67;3.07;;;7.10;99.90;;;;;;5016942;28;20379;-77
2022/03/30 00:53:04;;;;;;;12.90;2.93;;;7.10;99.90;;;;;;5019768;28;20212;-78
2022/03/30 00:55:30;;;;;;;8.00;2.70;;;7.00;99.90;;;;;;5017868;28;20236;-78
2022/03/30 00:57:57;;;;;;;11.77;2.63;;;7.00;99.90;;;;;;5007600;28;20845;-77
2022/03/30 01:00:23;;;;;;;9.17;3.03;;;7.00;99.90;;;;;;5008497;28;20172;-78
2022/03/30 01:02:50;;;;;;;9.30;2.73;;;7.10;99.90;;;;;;4999899;28;20236;-78
2022/03/30 01:05:16;;;;;;;9.40;2.67;;;7.10;99.90;;;;;;5014103;28;20229;-78
2022/03/30 01:07:42;;;;;;;10.43;3.10;;;7.10;99.90;;;;;;5004378;28;20240;-78
2022/03/30 01:10:09;;;;;;;11.37;2.70;;;7.00;99.90;;;;;;5031624;28;20234;-78
2022/03/30 01:12:39;;;;;;;7.23;2.63;;;7.00;99.90;;;;;;5011214;28;20181;-77
2022/03/30 01:15:09;;;;;;;8.37;2.70;;;7.00;99.90;;;;;;5022498;28;20196;-77
2022/03/30 01:17:35;;;;;;;10.47;2.60;;;7.00;99.90;;;;;;5018183;28;20336;-77
2022/03/30 01:20:01;;;;;;;10.37;2.80;;;7.00;99.90;;;;;;5007198;28;20211;-77
2022/03/30 01:22:26;;;;;;;7.43;2.57;;;7.00;99.90;;;;;;5024256;28;20220;-78
2022/03/30 01:24:52;;;;;;;10.17;3.13;;;6.90;99.90;;;;;;5030110;28;20371;-77
2022/03/30 01:27:17;;;;;;;9.97;2.93;;;7.00;99.90;;;;;;5014158;28;20193;-77
2022/03/30 01:32:31;;;;;;;10.67;2.80;;;6.90;99.90;;;;;;5003906;28;20622;-77
2022/03/30 01:35:00;;;;;;;7.80;2.60;;;6.90;99.90;;;;;;5024475;28;20299;-77
2022/03/30 01:37:28;;;;;;;10.47;3.23;;;6.80;99.90;;;;;;5008296;28;20217;-77
2022/03/30 01:39:59;;;;;;;11.33;3.07;;;6.80;99.90;;;;;;4998900;28;20217;-78
2022/03/30 01:42:26;;;;;;;12.20;3.07;;;6.80;99.90;;;;;;5016812;28;20215;-77
2022/03/30 01:44:52;;;;;;;11.97;3.73;;;6.90;99.90;;;;;;5036982;28;20200;-77
2022/03/30 01:47:18;;;;;;;12.80;3.67;;;6.80;99.90;;;;;;5037033;28;20230;-77
2022/03/30 01:49:45;;;;;;;12.37;3.77;;;6.90;99.90;;;;;;5036069;28;20200;-78
2022/03/30 01:52:11;;;;;;;8.50;3.60;;;6.80;99.90;;;;;;5030260;28;20749;-77
2022/03/30 01:54:39;;;;;;;14.00;3.60;;;6.80;99.90;;;;;;5050678;28;20250;-78
2022/03/30 01:57:06;;;;;;;12.37;4.00;;;6.80;99.90;;;;;;5052634;28;20188;-78
2022/03/30 01:59:33;;;;;;;12.30;3.80;;;6.80;99.90;;;;;;5036100;28;20634;-77
2022/03/30 02:01:58;;;;;;;7.50;2.93;;;6.80;99.90;;;;;;5033592;28;20208;-78
2022/03/30 02:04:24;;;;;;;12.70;3.47;;;6.70;99.90;;;;;;5032757;28;20208;-77
2022/03/30 02:06:50;;;;;;;9.60;2.90;;;6.70;99.90;;;;;;5052151;28;20195;-77
2022/03/30 02:09:16;;;;;;;14.87;3.50;;;6.70;99.90;;;;;;5052066;28;20596;-76
2022/03/30 02:11:42;;;;;;;10.10;2.90;;;6.60;99.90;;;;;;5057536;28;20196;-78
2022/03/30 02:14:08;;;;;;;9.37;3.07;;;6.70;99.90;;;;;;5039803;28;20689;-76
2022/03/30 02:16:34;;;;;;;8.90;2.87;;;6.70;99.90;;;;;;5052242;28;20207;-79
2022/03/30 02:18:59;;;;;;;10.63;3.20;;;6.70;99.90;;;;;;5037598;28;20230;-77
2022/03/30 02:21:25;;;;;;;13.77;3.50;;;6.70;99.90;;;;;;5052585;28;20239;-75
2022/03/30 02:23:51;;;;;;;9.87;3.53;;;6.70;99.90;;;;;;5036700;28;20208;-75
2022/03/30 02:26:17;;;;;;;11.50;3.23;;;6.60;99.90;;;;;;5036661;28;20219;-76
2022/03/30 02:28:44;;;;;;;14.43;3.50;;;6.60;99.90;;;;;;5035759;28;20212;-75
2022/03/30 02:31:11;;;;;;;10.20;3.17;;;6.60;99.90;;;;;;5050854;28;20211;-78
2022/03/30 02:33:37;;;;;;;9.60;3.63;;;6.60;99.90;;;;;;5028669;28;20212;-78
2022/03/30 02:36:04;;;;;;;9.93;3.10;;;6.50;99.90;;;;;;5021459;28;20250;-78
2022/03/30 02:38:29;;;;;;;18.73;3.60;;;6.60;99.90;;;;;;5046501;28;20209;-78
2022/03/30 02:40:55;;;;;;;9.60;3.07;;;6.50;99.90;;;;;;5048666;28;20222;-77
2022/03/30 02:43:21;;;;;;;10.13;3.67;;;6.50;99.90;;;;;;5046678;28;20219;-76
2022/03/30 02:45:47;;;;;;;8.03;3.30;;;6.50;99.90;;;;;;5048898;28;20177;-78
2022/03/30 02:48:19;;;;;;;13.87;2.70;;;6.40;99.90;;;;;;5048228;28;20665;-77
2022/03/30 02:50:47;;;;;;;11.47;2.83;;;6.40;99.90;;;;;;5033008;28;20235;-77
2022/03/30 02:53:13;;;;;;;13.67;3.03;;;6.40;99.90;;;;;;5048571;28;20269;-78
2022/03/30 02:55:38;;;;;;;10.53;2.73;;;6.40;99.90;;;;;;5032930;28;20223;-77
2022/03/30 02:58:04;;;;;;;8.60;2.80;;;6.40;99.90;;;;;;5032683;28;20205;-77
2022/03/30 03:00:30;;;;;;;8.93;3.00;;;6.30;99.90;;;;;;5033267;28;20168;-77
2022/03/30 03:02:56;;;;;;;8.97;2.97;;;6.30;99.90;;;;;;5025176;28;20208;-78
2022/03/30 03:05:21;;;;;;;9.03;2.40;;;6.30;99.90;;;;;;5044205;28;20208;-77
2022/03/30 03:07:47;;;;;;;16.83;4.10;;;6.30;99.90;;;;;;5047832;28;20339;-77
2022/03/30 03:10:14;;;;;;;10.77;2.83;;;6.20;99.90;;;;;;5032659;28;20200;-77
2022/03/30 03:12:39;;;;;;;12.83;3.07;;;6.20;99.90;;;;;;5047987;28;20184;-77
2022/03/30 03:15:05;;;;;;;10.80;3.40;;;6.20;99.90;;;;;;5040386;28;20180;-77
2022/03/30 03:17:31;;;;;;;14.77;4.20;;;6.20;99.90;;;;;;5024245;28;20212;-77
2022/03/30 03:19:56;;;;;;;9.80;2.70;;;6.20;99.90;;;;;;5047423;28;20208;-77
2022/03/30 03:22:22;;;;;;;10.63;3.20;;;6.20;99.90;;;;;;5032484;28;20206;-75
2022/03/30 03:24:47;;;;;;;17.93;3.30;;;6.20;99.90;;;;;;5035747;28;20210;-77
2022/03/30 03:27:13;;;;;;;14.07;3.57;;;6.00;99.90;;;;;;5033212;28;20196;-78
2022/03/30 03:29:38;;;;;;;13.47;2.93;;;5.90;99.90;;;;;;5031663;28;20310;-76
2022/03/30 03:32:05;;;;;;;11.53;3.43;;;5.90;99.90;;;;;;5047784;28;20212;-77
2022/03/30 03:34:30;;;;;;;13.63;3.27;;;6.00;99.90;;;;;;5027151;28;20221;-76
2022/03/30 03:36:56;;;;;;;10.37;3.30;;;6.00;99.90;;;;;;5025777;28;20223;-77
2022/03/30 03:39:22;;;;;;;12.30;3.47;;;5.90;99.90;;;;;;5031931;28;20187;-78
2022/03/30 03:41:47;;;;;;;16.00;3.70;;;5.90;99.90;;;;;;5047480;28;20208;-77
2022/03/30 03:44:12;;;;;;;9.77;3.03;;;5.90;99.90;;;;;;5031948;28;20338;-77
2022/03/30 03:46:38;;;;;;;9.93;2.93;;;5.90;99.90;;;;;;5032289;28;20212;-78
2022/03/30 03:49:04;;;;;;;8.60;3.87;;;5.90;99.90;;;;;;5047726;28;20224;-76
2022/03/30 03:51:29;;;;;;;9.43;3.07;;;5.80;99.90;;;;;;5051257;28;20213;-80
2022/03/30 03:53:55;;;;;;;10.73;2.70;;;5.80;99.90;;;;;;5067368;28;20219;-80
2022/03/30 03:56:21;;;;;;;17.77;3.30;;;5.80;99.90;;;;;;5055655;28;20219;-77
2022/03/30 03:58:49;;;;;;;9.80;2.77;;;5.70;99.90;;;;;;5031594;28;20342;-77
2022/03/30 04:01:14;;;;;;;7.90;3.33;;;5.70;99.90;;;;;;5047391;28;20346;-77
2022/03/30 04:03:42;;;;;;;10.53;3.17;;;5.60;99.90;;;;;;5031832;28;20275;-77
2022/03/30 04:06:08;;;;;;;12.70;3.90;;;5.60;99.90;;;;;;5043837;28;20181;-77
2022/03/30 04:08:34;;;;;;;17.23;3.50;;;5.60;99.90;;;;;;5030716;28;20223;-77
2022/03/30 04:10:59;;;;;;;14.40;3.10;;;5.50;99.90;;;;;;5031876;28;20222;-79
2022/03/30 04:13:25;;;;;;;13.17;4.03;;;5.60;99.90;;;;;;5046654;28;20228;-77
2022/03/30 04:15:51;;;;;;;8.63;3.00;;;5.60;99.90;;;;;;5031921;28;20601;-77
2022/03/30 04:18:16;;;;;;;12.23;3.87;;;5.60;99.90;;;;;;5031267;28;20247;-78
2022/03/30 04:20:43;;;;;;;12.43;3.37;;;5.60;99.90;;;;;;5046638;28;20346;-77
2022/03/30 04:23:09;;;;;;;10.77;3.47;;;5.50;99.90;;;;;;5031709;28;20681;-78
2022/03/30 04:25:35;;;;;;;15.53;3.30;;;5.50;99.90;;;;;;5046580;28;20223;-77
2022/03/30 04:28:01;;;;;;;13.30;3.00;;;5.60;99.90;;;;;;5030713;28;20230;-77
2022/03/30 04:30:26;;;;;;;9.23;3.20;;;5.60;99.90;;;;;;5031660;28;20263;-77
2022/03/30 04:32:53;;;;;;;12.40;2.70;;;5.60;99.90;;;;;;5031229;28;20728;-77
2022/03/30 04:35:24;;;;;;;15.20;3.27;;;5.60;99.90;;;;;;5033072;28;20196;-78
2022/03/30 04:37:52;;;;;;;16.37;3.27;;;5.60;99.90;;;;;;5015975;28;20216;-77
2022/03/30 04:40:17;;;;;;;6.80;3.00;;;5.60;99.90;;;;;;5046457;28;20631;-77
2022/03/30 04:42:43;;;;;;;9.07;2.60;;;5.70;99.90;;;;;;5043360;28;20173;-77
2022/03/30 04:45:08;;;;;;;11.83;3.60;;;5.60;99.90;;;;;;5026716;28;20173;-78
2022/03/30 04:47:34;;;;;;;12.53;3.27;;;5.60;99.90;;;;;;5046007;28;20207;-77
2022/03/30 04:49:59;;;;;;;11.13;3.50;;;5.70;99.90;;;;;;5040668;28;20585;-77
2022/03/30 04:52:25;;;;;;;11.73;2.73;;;5.60;99.90;;;;;;5014209;28;20205;-77
2022/03/30 04:54:50;;;;;;;12.30;3.30;;;5.60;99.90;;;;;;5010764;28;20232;-77
2022/03/30 04:57:16;;;;;;;8.37;3.20;;;5.70;99.90;;;;;;5011910;28;20209;-77
2022/03/30 04:59:42;;;;;;;13.63;3.20;;;5.80;99.90;;;;;;5025656;28;20213;-77
2022/03/30 05:02:08;;;;;;;9.07;3.37;;;5.80;99.90;;;;;;5011340;28;20219;-77
2022/03/30 05:04:33;;;;;;;16.43;4.53;;;5.90;99.90;;;;;;5011125;28;20212;-79
2022/03/30 05:06:59;;;;;;;9.40;3.57;;;5.90;99.90;;;;;;5023358;28;20658;-77
2022/03/30 05:09:24;;;;;;;11.57;3.50;;;6.00;99.90;;;;;;5013829;28;20180;-77
2022/03/30 05:11:51;;;;;;;11.97;3.70;;;6.00;99.90;;;;;;5015181;28;20298;-78
2022/03/30 05:14:17;;;;;;;15.90;4.17;;;6.00;99.90;;;;;;5015192;28;20708;-77
2022/03/30 05:16:42;;;;;;;14.27;3.90;;;6.10;99.90;;;;;;5026074;28;20209;-79
2022/03/30 05:19:09;;;;;;;11.27;4.17;;;6.20;99.90;;;;;;5010410;28;20212;-80
2022/03/30 05:21:35;;;;;;;13.27;3.70;;;6.20;99.90;;;;;;5011379;28;20170;-78
2022/03/30 05:24:00;;;;;;;9.53;3.50;;;6.30;99.90;;;;;;5011833;28;20188;-77
2022/03/30 05:26:28;;;;;;;14.00;3.93;;;6.30;99.90;;;;;;5010945;28;20213;-77
2022/03/30 05:28:54;;;;;;;10.17;3.90;;;6.30;99.90;;;;;;5010223;28;20767;-77
2022/03/30 05:31:19;;;;;;;13.00;3.83;;;6.30;99.90;;;;;;5010994;28;20212;-79
2022/03/30 05:33:45;;;;;;;13.97;3.63;;;6.40;99.90;;;;;;5010631;28;20271;-77
2022/03/30 05:36:12;;;;;;;17.70;4.30;;;6.40;99.90;;;;;;5011256;28;20180;-77
2022/03/30 05:38:37;;;;;;;11.40;3.57;;;6.40;99.90;;;;;;5010029;28;20601;-77
2022/03/30 05:41:03;;;;;;;12.10;3.70;;;6.30;99.90;;;;;;5026097;28;20254;-77
2022/03/30 05:43:29;;;;;;;13.90;3.40;;;6.40;99.90;;;;;;5010674;28;20240;-77
2022/03/30 05:45:54;;;;;;;15.43;3.47;;;6.50;99.90;;;;;;5010724;28;20227;-77
2022/03/30 05:48:20;;;;;;;12.70;3.67;;;6.60;99.90;;;;;;5025735;28;20205;-77
2022/03/30 05:50:46;;;;;;;8.50;3.47;;;6.60;99.90;;;;;;5011067;28;20654;-77
2022/03/30 05:53:14;;;;;;;13.57;3.63;;;6.60;99.90;;;;;;5023920;28;20216;-77
2022/03/30 05:55:40;;;;;;;15.77;3.90;;;6.70;99.90;;;;;;5026641;28;20224;-78
2022/03/30 05:58:06;;;;;;;10.23;3.43;;;6.70;99.90;;;;;;5026402;28;20213;-80
2022/03/30 06:00:32;;;;;;;11.00;3.30;;;6.80;99.90;;;;;;5010861;28;20173;-77
2022/03/30 06:02:58;;;;;;;9.17;4.00;;;6.80;99.90;;;;;;5026306;28;20180;-78
2022/03/30 06:05:23;;;;;;;10.67;3.00;;;6.90;99.90;;;;;;5010806;28;20213;-78
2022/03/30 06:07:49;;;;;;;8.23;3.07;;;6.90;99.90;;;;;;5014281;28;20205;-78
2022/03/30 06:10:16;;;;;;;12.37;3.60;;;6.70;99.90;;;;;;5022500;28;20585;-78
2022/03/30 06:12:41;;;;;;;13.27;3.60;;;6.70;99.90;;;;;;5029626;28;20181;-78
2022/03/30 06:15:08;;;;;;;12.07;3.30;;;6.80;99.90;;;;;;5015111;28;20228;-78
2022/03/30 06:17:34;;;;;;;11.87;2.83;;;6.80;99.90;;;;;;5032738;28;20216;-77
2022/03/30 06:20:03;;;;;;;13.97;3.90;;;7.00;99.90;;;;;;5021040;28;20747;-78
2022/03/30 06:22:30;;;;;;;14.33;3.17;;;7.30;99.90;;;;;;5029246;28;20212;-78
2022/03/30 06:24:56;;;;;;;12.50;3.00;;;7.50;99.90;;;;;;5014300;28;20221;-78
2022/03/30 06:27:22;;;;;;;13.57;3.47;;;7.50;99.90;;;;;;5029837;28;20571;-78
2022/03/30 06:29:47;;;;;;;13.20;3.80;;;7.70;99.90;;;;;;5021568;28;20284;-79
2022/03/30 06:32:13;;;;;;;13.83;3.20;;;8.00;99.90;;;;;;5022194;28;20244;-76
2022/03/30 06:34:40;;;;;;;10.77;3.90;;;8.40;99.90;;;;;;5037569;28;20664;-78
2022/03/30 06:37:06;;;;;;;12.47;3.93;;;8.90;99.90;;;;;;5034301;28;20227;-78
2022/03/30 06:39:33;;;;;;;17.03;4.00;;;9.50;99.90;;;;;;5056001;28;20207;-78
2022/03/30 06:41:59;;;;;;;16.60;4.10;;;9.80;99.90;;;;;;5054673;28;20440;-80
2022/03/30 06:44:25;;;;;;;15.80;4.93;;;10.00;99.90;;;;;;5053333;28;20209;-78
2022/03/30 06:46:50;;;;;;;15.57;4.60;;;10.00;99.90;;;;;;5029727;28;20205;-78
2022/03/30 06:49:16;;;;;;;10.43;3.23;;;10.10;99.90;;;;;;5038060;28;20215;-78
2022/03/30 06:51:41;;;;;;;11.23;3.27;;;10.60;99.90;;;;;;5026228;28;20539;-79
2022/03/30 06:54:07;;;;;;;12.10;4.00;;;10.30;99.90;;;;;;5027931;28;20213;-79
2022/03/30 06:56:33;;;;;;;8.00;3.13;;;10.10;99.90;;;;;;5026412;28;20269;-78
2022/03/30 06:58:58;;;;;;;16.10;3.90;;;10.10;99.90;;;;;;5046101;28;20605;-78
2022/03/30 07:01:24;;;;;;;11.90;3.80;;;10.20;99.90;;;;;;5027775;28;20217;-81
2022/03/30 07:03:50;;;;;;;14.97;4.00;;;10.40;99.90;;;;;;5041961;28;20238;-78
2022/03/30 07:06:16;;;;;;;19.83;4.30;;;10.70;99.90;;;;;;5019996;28;20199;-80
2022/03/30 07:11:26;;;;;;;13.87;3.03;;;10.90;99.90;;;;;;5013413;28;20211;-78
2022/03/30 07:13:52;;;;;;;18.33;3.70;;;10.80;99.90;;;;;;5014311;28;20209;-78
2022/03/30 07:16:18;;;;;;;12.60;3.50;;;11.00;99.90;;;;;;5013389;28;20248;-78
2022/03/30 07:18:44;;;;;;;12.87;3.57;;;11.20;99.90;;;;;;5026754;28;20205;-79
2022/03/30 07:21:10;;;;;;;11.83;3.77;;;11.20;99.90;;;;;;5014669;28;20243;-77
2022/03/30 07:23:35;;;;;;;16.53;3.70;;;11.30;99.90;;;;;;5014268;28;20229;-78
2022/03/30 07:26:01;;;;;;;11.97;3.77;;;11.40;99.90;;;;;;5013231;28;20637;-78
2022/03/30 07:28:27;;;;;;;13.70;3.80;;;11.30;99.90;;;;;;5012229;28;20217;-78
2022/03/30 07:30:53;;;;;;;14.60;3.50;;;11.20;99.90;;;;;;5013236;28;20563;-79
2022/03/30 07:33:20;;;;;;;9.17;2.80;;;10.70;99.90;;;;;;5028534;28;20255;-78
2022/03/30 07:35:46;;;;;;;12.00;3.70;;;10.30;99.90;;;;;;5028163;28;20933;-78
2022/03/30 07:38:16;;;;;;;11.13;3.33;;;10.90;99.90;;;;;;5012133;28;20237;-78
2022/03/30 07:40:42;;;;;;;10.23;2.93;;;11.00;99.90;;;;;;5012847;28;20197;-78
2022/03/30 07:43:09;;;;;;;10.47;3.07;;;10.60;99.90;;;;;;5026272;28;20219;-78
2022/03/30 07:45:35;;;;;;;15.33;3.77;;;10.90;99.90;;;;;;5016236;28;20183;-78
2022/03/30 07:48:01;;;;;;;9.57;2.90;;;11.30;99.90;;;;;;5050876;28;20184;-78
2022/03/30 07:50:26;;;;;;;10.53;3.20;;;11.80;99.90;;;;;;5025461;28;20219;-78
2022/03/30 07:52:52;;;;;;;15.83;3.13;;;12.40;99.90;;;;;;5022263;28;20208;-78
2022/03/30 07:55:18;;;;;;;9.43;3.70;;;12.20;99.90;;;;;;5014130;28;20217;-78
2022/03/30 07:57:44;;;;;;;14.70;3.30;;;11.70;99.90;;;;;;5029136;28;20629;-79
2022/03/30 08:00:16;;;;;;;9.33;3.33;;;11.40;99.90;;;;;;5019482;28;20580;-78
2022/03/30 08:02:42;;;;;;;9.83;3.20;;;11.20;99.90;;;;;;5012783;28;20367;-78
2022/03/30 08:05:10;;;;;;;9.67;3.40;;;11.20;99.90;;;;;;5012495;28;20220;-78
2022/03/30 08:07:35;;;;;;;13.03;3.53;;;11.40;99.90;;;;;;5012132;28;20213;-78
2022/03/30 08:10:01;;;;;;;8.47;3.10;;;11.80;99.90;;;;;;5011473;28;20345;-78
2022/03/30 08:12:27;;;;;;;10.00;2.67;;;11.70;99.90;;;;;;5027598;28;20650;-79
2022/03/30 08:14:54;;;;;;;11.03;2.93;;;11.70;99.90;;;;;;5012328;28;20296;-77
2022/03/30 08:17:20;;;;;;;7.23;2.73;;;11.10;99.90;;;;;;5011889;28;20227;-78
2022/03/30 08:19:45;;;;;;;10.83;3.20;;;10.80;99.90;;;;;;5060276;22;20225;-75
2022/03/30 08:22:28;;;;;;;7.43;2.67;;;11.20;99.90;;;;;;5034192;28;20262;-76
2022/03/30 08:25:19;;;;;;;10.27;3.10;;;11.20;99.90;;;;;;5018218;28;20217;-76
2022/03/30 08:27:46;;;;;;;15.03;2.90;;;11.20;99.90;;;;;;5016452;28;20189;-76
2022/03/30 08:30:12;;;;;;;6.33;2.30;;;10.70;99.90;;;;;;5011628;28;20218;-77
2022/03/30 08:32:37;;;;;;;7.13;2.50;;;10.70;99.90;;;;;;5008999;28;20253;-77
2022/03/30 08:35:05;;;;;;;14.67;2.47;;;10.90;99.90;;;;;;4996556;28;20241;-77
2022/03/30 08:37:30;;;;;;;13.57;3.00;;;11.10;99.90;;;;;;4999502;28;20206;-77
2022/03/30 08:39:56;;;;;;;12.63;3.27;;;11.10;99.90;;;;;;5026997;28;20208;-76
2022/03/30 08:42:21;;;;;;;8.10;2.80;;;11.40;99.90;;;;;;5030146;28;20650;-76
2022/03/30 08:44:49;;;;;;;9.17;2.67;;;11.60;99.90;;;;;;5048503;28;20223;-76
2022/03/30 08:47:15;;;;;;;10.70;2.70;;;12.10;99.90;;;;;;5049443;28;20216;-76
2022/03/30 08:49:42;;;;;;;13.23;2.80;;;12.20;99.90;;;;;;5043413;28;20219;-77
2022/03/30 08:52:09;;;;;;;8.57;2.60;;;12.20;99.90;;;;;;5042118;28;20598;-77
2022/03/30 08:54:35;;;;;;;9.67;2.70;;;12.10;99.90;;;;;;5063982;28;20611;-76
2022/03/30 08:57:02;;;;;;;12.80;3.00;;;12.00;99.90;;;;;;5039998;28;20192;-76
2022/03/30 08:59:28;;;;;;;9.63;3.00;;;11.40;99.90;;;;;;5030800;28;20212;-76
2022/03/30 09:01:55;;;;;;;9.10;2.73;;;11.60;99.90;;;;;;5031976;28;20234;-76
2022/03/30 09:04:21;;;;;;;7.20;2.20;;;11.80;99.90;;;;;;5032169;28;20235;-76
2022/03/30 09:06:47;;;;;;;5.63;2.27;;;11.70;99.90;;;;;;5026621;28;20646;-75
2022/03/30 09:09:14;;;;;;;9.60;3.10;;;11.60;99.90;;;;;;5049592;28;20208;-76
2022/03/30 09:11:52;;;;;;;8.23;2.27;;;11.70;99.90;;;;;;5047500;28;20234;-76
2022/03/30 09:14:19;;;;;;;10.33;2.00;;;11.50;99.90;;;;;;5046621;28;20591;-76
2022/03/30 09:16:47;;;;;;;8.87;2.43;;;11.50;99.90;;;;;;5062943;28;20207;-76
2022/03/30 09:19:15;;;;;;;9.77;2.37;;;11.50;99.90;;;;;;5046809;28;20228;-76
2022/03/30 09:21:51;;;;;;;8.37;2.67;;;11.70;99.90;;;;;;5039618;28;20890;-75
2022/03/30 09:24:19;;;;;;;11.30;2.73;;;11.70;99.90;;;;;;5050019;28;20180;-75
2022/03/30 09:26:45;;;;;;;8.37;3.67;;;11.60;99.90;;;;;;5047793;28;20216;-76
2022/03/30 09:29:11;;;;;;;12.87;4.10;;;11.10;99.90;;;;;;5063460;28;20222;-76
2022/03/30 09:31:41;;;;;;;6.50;2.17;;;10.50;99.90;;;;;;5038998;28;20223;-76
2022/03/30 09:34:09;;;;;;;7.37;2.53;;;10.50;99.90;;;;;;5029544;28;20601;-76
2022/03/30 09:36:37;;;;;;;13.07;3.03;;;10.90;99.90;;;;;;5031084;28;20701;-76
2022/03/30 09:39:07;;;;;;;8.27;2.83;;;11.30;99.90;;;;;;5031030;28;20224;-77
2022/03/30 09:41:51;;;;;;;12.13;4.60;;;11.60;99.90;;;;;;5032820;28;20222;-76
2022/03/30 09:44:17;;;;;;;8.77;3.50;;;11.70;99.90;;;;;;5034725;28;20227;-77
2022/03/30 09:47:05;;;;;;;9.03;2.17;;;11.70;99.90;;;;;;5034795;28;20204;-77
2022/03/30 09:49:38;;;;;;;7.83;2.40;;;11.60;99.90;;;;;;5032125;28;20742;-77
2022/03/30 09:52:20;;;;;;;8.77;2.10;;;11.10;99.90;;;;;;5036127;28;20212;-77
2022/03/30 09:54:51;;;;;;;7.17;2.13;;;11.10;99.90;;;;;;5018996;28;20208;-77
2022/03/30 09:57:21;;;;;;;7.80;2.10;;;11.00;99.90;;;;;;5035678;28;20653;-76
2022/03/30 09:59:59;;;;;;;7.23;2.10;;;10.60;99.90;;;;;;5038196;28;20221;-77
2022/03/30 10:02:34;;;;;;;5.93;2.17;;;10.80;99.90;;;;;;5049776;28;20253;-77
2022/03/30 10:05:00;;;;;;;7.97;2.37;;;10.90;99.90;;;;;;5034691;28;20215;-77
2022/03/30 10:07:27;;;;;;;8.00;2.27;;;10.90;99.90;;;;;;5034136;28;20721;-77
2022/03/30 10:09:53;;;;;;;8.17;2.30;;;10.80;99.90;;;;;;5033102;28;20688;-76
2022/03/30 10:12:19;;;;;;;8.67;2.70;;;10.50;99.90;;;;;;5034453;28;20188;-75
2022/03/30 10:14:46;;;;;;;7.20;2.10;;;10.30;99.90;;;;;;5032644;28;20216;-77
2022/03/30 10:17:13;;;;;;;6.90;2.50;;;10.40;99.90;;;;;;5034825;28;20204;-77
2022/03/30 10:19:44;;;;;;;8.17;2.37;;;10.80;99.90;;;;;;5033569;28;20303;-76
2022/03/30 10:22:33;;;;;;;5.17;2.60;;;10.90;99.90;;;;;;5022827;28;20240;-75
2022/03/30 10:25:32;;;;;;;6.80;2.20;;;11.40;99.90;;;;;;5022797;28;20258;-75
2022/03/30 10:28:10;;;;;;;7.60;2.37;;;11.70;99.90;;;;;;5029841;28;20221;-75
2022/03/30 10:30:36;;;;;;;5.53;1.80;;;11.60;99.90;;;;;;5029104;28;20176;-74
2022/03/30 10:33:03;;;;;;;7.17;2.07;;;11.20;99.90;;;;;;5040661;28;20252;-75
2022/03/30 10:35:43;;;;;;;9.00;2.07;;;11.10;99.90;;;;;;5032097;28;20204;-75
2022/03/30 10:38:10;;;;;;;9.80;2.60;;;10.80;99.90;;;;;;5027059;28;20287;-75
2022/03/30 10:40:37;;;;;;;8.07;2.57;;;10.90;99.90;;;;;;5033561;28;20212;-75
2022/03/30 10:43:11;;;;;;;6.80;2.53;;;10.90;99.90;;;;;;5033670;28;20636;-75
2022/03/30 10:45:40;;;;;;;10.90;3.07;;;10.30;99.90;;;;;;5032374;28;20177;-75
2022/03/30 10:48:30;;;;;;;14.70;2.40;;;10.60;99.90;;;;;;5033417;28;20175;-75
2022/03/30 10:51:07;;;;;;;7.37;2.00;;;10.50;99.90;;;;;;5028211;28;20215;-75
2022/03/30 10:53:38;;;;;;;7.83;2.40;;;11.00;99.90;;;;;;5032509;28;20220;-76
2022/03/30 10:56:15;;;;;;;6.07;1.60;;;11.30;99.90;;;;;;5043335;28;20317;-76
2022/03/30 10:58:52;;;;;;;7.93;2.40;;;11.80;99.90;;;;;;5032963;28;20218;-75
2022/03/30 11:01:28;;;;;;;7.70;2.40;;;11.90;99.90;;;;;;5041418;28;20216;-75
2022/03/30 11:04:21;;;;;;;6.43;2.50;;;11.80;99.90;;;;;;5020586;28;20580;-77
2022/03/30 11:06:53;;;;;;;11.27;2.20;;;11.90;99.90;;;;;;5017696;28;20181;-76
2022/03/30 11:09:25;;;;;;;9.43;2.13;;;12.40;99.90;;;;;;5031583;28;20203;-75
2022/03/30 11:12:12;;;;;;;4.50;1.90;;;12.50;99.90;;;;;;5019494;28;20285;-73
2022/03/30 11:14:41;;;;;;;10.77;2.87;;;12.90;99.90;;;;;;5034639;28;20665;-74
2022/03/30 11:17:09;;;;;;;7.50;3.10;;;12.70;99.90;;;;;;5032672;28;20208;-73
2022/03/30 11:19:47;;;;;;;5.10;1.97;;;12.60;99.90;;;;;;5031919;28;20246;-75
2022/03/30 11:22:16;;;;;;;7.63;2.53;;;12.80;99.90;;;;;;5048913;28;20212;-72
2022/03/30 11:24:44;;;;;;;5.90;2.17;;;12.60;99.90;;;;;;5033132;28;20180;-73
2022/03/30 11:27:09;;;;;;;7.50;2.20;;;12.30;99.90;;;;;;5033413;28;20173;-72
2022/03/30 11:29:41;;;;;;;8.67;2.57;;;12.50;99.90;;;;;;5032116;28;20214;-73
2022/03/30 11:32:32;;;;;;;6.20;2.20;;;12.50;99.90;;;;;;5032777;28;20597;-73
2022/03/30 11:35:00;;;;;;;9.17;2.70;;;12.60;99.90;;;;;;5032987;28;20281;-73
2022/03/30 11:37:36;;;;;;;4.87;1.73;;;12.50;99.90;;;;;;5033124;28;20208;-74
2022/03/30 11:40:09;;;;;;;7.77;2.20;;;12.20;99.90;;;;;;5047822;28;20212;-74
2022/03/30 11:42:43;;;;;;;7.73;3.00;;;12.00;99.90;;;;;;5032735;28;20376;-74
2022/03/30 11:45:14;;;;;;;11.27;2.87;;;12.20;99.90;;;;;;5031846;28;20184;-73
2022/03/30 11:47:47;;;;;;;6.90;2.13;;;12.60;99.90;;;;;;5032310;28;20208;-73
2022/03/30 11:50:14;;;;;;;11.93;3.00;;;12.70;99.90;;;;;;5047152;28;20216;-74
2022/03/30 11:52:42;;;;;;;7.03;2.30;;;12.30;99.90;;;;;;5032493;28;20219;-73
2022/03/30 11:55:08;;;;;;;6.43;2.90;;;12.10;99.90;;;;;;5032517;28;20231;-73
2022/03/30 11:57:39;;;;;;;9.80;2.33;;;11.80;99.90;;;;;;5031100;28;20613;-73
2022/03/30 12:00:09;;;;;;;6.73;2.83;;;11.60;99.90;;;;;;5032557;28;20188;-73
2022/03/30 12:02:41;;;;;;;19.13;10.27;;;11.30;99.90;;;;;;5033068;28;20212;-73
2022/03/30 12:05:08;;;;;;;9.40;2.57;;;11.10;99.90;;;;;;5032447;28;20297;-74
2022/03/30 12:07:36;;;;;;;6.23;2.67;;;11.50;99.90;;;;;;5032603;28;20577;-74
2022/03/30 12:10:03;;;;;;;8.83;3.20;;;11.40;99.90;;;;;;5032511;28;20220;-74
2022/03/30 12:12:36;;;;;;;7.37;2.37;;;11.50;99.90;;;;;;5033439;28;20190;-73
2022/03/30 12:15:14;;;;;;;8.70;2.70;;;11.40;99.90;;;;;;5035162;28;20216;-74
2022/03/30 12:17:40;;;;;;;7.43;2.43;;;11.50;99.90;;;;;;5033678;28;20582;-73
2022/03/30 12:20:08;;;;;;;5.53;2.57;;;11.80;99.90;;;;;;5031994;28;20256;-73
2022/03/30 12:22:35;;;;;;;7.23;2.37;;;11.70;99.90;;;;;;5031997;28;20215;-73
2022/03/30 12:25:01;;;;;;;6.87;2.87;;;11.70;99.90;;;;;;5030708;28;20219;-73
2022/03/30 12:27:27;;;;;;;7.60;2.27;;;11.50;99.90;;;;;;5022840;28;20252;-73
2022/03/30 12:29:56;;;;;;;8.20;2.37;;;11.20;99.90;;;;;;5023434;28;20207;-73
2022/03/30 12:32:24;;;;;;;7.03;2.50;;;11.40;99.90;;;;;;5029637;28;20289;-72
2022/03/30 12:35:04;;;;;;;8.90;3.00;;;11.60;99.90;;;;;;5031174;28;20226;-72
2022/03/30 12:37:30;;;;;;;8.47;2.60;;;11.50;99.90;;;;;;5031002;28;20212;-72
2022/03/30 12:40:10;;;;;;;7.23;2.97;;;11.40;99.90;;;;;;5028653;28;20281;-72
2022/03/30 12:42:36;;;;;;;8.83;3.00;;;11.20;99.90;;;;;;5046539;28;20550;-72
2022/03/30 12:45:08;;;;;;;9.10;3.27;;;10.90;99.90;;;;;;5031519;28;20173;-73
2022/03/30 12:47:36;;;;;;;10.80;3.37;;;10.80;99.90;;;;;;5031888;28;20204;-73
2022/03/30 12:50:08;;;;;;;10.13;3.07;;;10.80;99.90;;;;;;5028528;28;20620;-73
2022/03/30 12:52:44;;;;;;;6.33;3.03;;;10.90;99.90;;;;;;5029080;28;20212;-73
2022/03/30 12:55:13;;;;;;;7.77;3.83;;;10.70;99.90;;;;;;5030451;28;20228;-74
2022/03/30 12:57:53;;;;;;;10.67;3.67;;;10.60;99.90;;;;;;5030089;28;20188;-71
2022/03/30 13:00:25;;;;;;;8.43;3.33;;;10.30;99.90;;;;;;5046270;28;20192;-74
2022/03/30 13:03:11;;;;;;;7.30;2.87;;;10.10;99.90;;;;;;5045535;28;20223;-72
2022/03/30 13:05:37;;;;;;;8.40;3.47;;;10.20;99.90;;;;;;5029344;28;20208;-72
2022/03/30 13:08:23;;;;;;;6.57;3.40;;;10.10;99.90;;;;;;5028078;28;20676;-72
2022/03/30 13:11:02;;;;;;;8.57;3.70;;;10.20;99.90;;;;;;5028809;28;20203;-72
2022/03/30 13:13:30;;;;;;;5.27;2.93;;;10.20;99.90;;;;;;5032109;28;20251;-73
2022/03/30 13:16:09;;;;;;;13.53;4.23;;;10.10;99.90;;;;;;5030128;28;20204;-73
2022/03/30 13:18:36;;;;;;;11.90;3.43;;;10.10;99.90;;;;;;4993026;28;1068571;-73
2022/03/30 13:21:10;;;;;;;11.90;3.70;;;10.20;99.90;;;;;;5031157;28;20195;-73
2022/03/30 13:23:38;;;;;;;9.60;4.17;;;10.20;99.90;;;;;;5031820;28;20696;-73
2022/03/30 13:26:22;;;;;;;9.60;3.70;;;10.00;99.90;;;;;;5031772;28;20219;-73